Time;durP1;ratioP1;P1;durP2;ratioP2;P2;SDS_P1;SDS_P2;PMS_P1;PMS_P2;Temp;Humidity;BMP_temperature;BMP_pressure;BME280_temperature;BME280_humidity;BME280_pressure;Samples;Min_cycle;Max_cycle;Signal;HPM_P1;HPM_P2
2022/12/27 00:00:54;;;;;;;;;;;;;;;1.70;89.52;98044.59;1725820;83;20117;-77
2022/12/27 00:03:22;;;;;;;;;;;;;;;1.74;89.63;98043.75;1725831;83;20149;-77
2022/12/27 00:05:48;;;;;;;;;;;;;;;1.76;89.61;98037.23;1726130;83;20108;-78
2022/12/27 00:08:15;;;;;;;;;;;;;;;1.76;89.63;98037.23;1726066;83;20109;-78
2022/12/27 00:10:41;;;;;;;;;;;;;;;1.76;89.26;98035.51;1726340;82;20094;-78
2022/12/27 00:13:08;;;;;;;;;;;;;;;1.74;89.76;98031.14;1755923;82;20091;-78
2022/12/27 00:15:34;;;;;;;;;;;;;;;1.70;89.66;98038.06;1755994;82;20122;-78
2022/12/27 00:18:01;;;;;;;;;;;;;;;1.74;89.62;98028.52;1756058;81;20108;-79
2022/12/27 00:20:28;;;;;;;;;;;;;;;1.79;89.90;98025.51;1738152;82;20121;-79
2022/12/27 00:22:54;;;;;;;;;;;;;;;1.84;89.95;98025.09;1726018;83;20125;-78
2022/12/27 00:25:20;;;;;;;;;;;;;;;1.84;89.89;98030.33;1731034;82;20087;-78
2022/12/27 00:27:46;;;;;;;;;;;;;;;1.89;90.18;98029.03;1755923;82;20107;-78
2022/12/27 00:30:13;;;;;;;;;;;;;;;1.91;90.10;98016.87;1755977;82;20119;-78
2022/12/27 00:32:39;;;;;;;;;;;;;;;1.94;90.19;98011.22;1756051;82;20130;-79
2022/12/27 00:35:06;;;;;;;;;;;;;;;1.98;90.19;98009.06;1755899;82;20083;-79
2022/12/27 00:37:32;;;;;;;;;;;;;;;2.02;90.09;98009.95;1755705;82;20139;-79
2022/12/27 00:39:58;;;;;;;;;;;;;;;2.06;90.35;98007.80;1755804;82;20115;-79
2022/12/27 00:42:25;;;;;;;;;;;;;;;2.11;90.30;98008.69;1756058;82;20091;-79
2022/12/27 00:44:51;;;;;;;;;;;;;;;2.13;90.21;97998.23;1756096;82;20114;-78
2022/12/27 00:47:17;;;;;;;;;;;;;;;2.10;90.05;97991.26;1755848;82;20135;-78
2022/12/27 00:49:45;;;;;;;;;;;;;;;2.13;90.45;97996.93;1756052;82;20079;-78
2022/12/27 00:52:11;;;;;;;;;;;;;;;2.15;90.36;97996.95;1739669;82;20090;-78
2022/12/27 00:54:37;;;;;;;;;;;;;;;2.05;89.89;97991.67;1726020;83;20090;-78
2022/12/27 00:57:04;;;;;;;;;;;;;;;2.00;90.18;97989.89;1726138;83;20148;-78
2022/12/27 00:59:30;;;;;;;;;;;;;;;1.97;90.00;97991.64;1726182;83;20105;-78
2022/12/27 01:01:57;;;;;;;;;;;;;;;1.96;90.46;97990.32;1725996;83;20353;-78
2022/12/27 01:04:23;;;;;;;;;;;;;;;1.92;90.46;97988.55;1726112;83;20093;-78
2022/12/27 01:06:51;;;;;;;;;;;;;;;1.93;90.70;97982.45;1745779;82;20158;-78
2022/12/27 01:09:17;;;;;;;;;;;;;;;1.90;90.45;97982.00;1756084;82;20091;-77
2022/12/27 01:11:47;;;;;;;;;;;;;;;1.91;90.54;97985.50;1756114;82;20098;-78
2022/12/27 01:14:13;;;;;;;;;;;;;;;1.83;90.51;97983.70;1756216;82;20098;-78
2022/12/27 01:16:39;;;;;;;;;;;;;;;1.82;90.31;97983.69;1756017;82;20386;-78
2022/12/27 01:19:05;;;;;;;;;;;;;;;1.84;90.54;97995.90;1769308;81;20089;-78
2022/12/27 01:21:34;;;;;;;;;;;;;;;1.87;90.64;97992.88;1757749;81;20089;-78
2022/12/27 01:24:00;;;;;;;;;;;;;;;1.88;90.68;97990.70;1770794;81;20089;-78
2022/12/27 01:26:29;;;;;;;;;;;;;;;1.89;90.55;97984.19;1770836;81;20365;-78
2022/12/27 01:28:55;;;;;;;;;;;;;;;1.93;90.40;97977.22;1770815;81;20073;-78
2022/12/27 01:31:24;;;;;;;;;;;;;;;1.93;90.59;97974.19;1770836;81;20334;-78
2022/12/27 01:33:57;;;;;;;;;;;;;;;1.95;90.39;97971.59;1769982;81;20124;-78
2022/12/27 01:36:25;;;;;;;;;;;;;;;1.90;90.67;97970.24;1770668;81;20152;-78
2022/12/27 01:38:52;;;;;;;;;;;;;;;1.87;90.81;97970.21;1742633;81;20354;-78
2022/12/27 01:44:51;;;;;;;;;;;;;;;1.79;90.53;97957.11;1770903;81;20168;-78
2022/12/27 01:47:24;;;;;;;;;;;;;;;1.81;90.96;97951.90;1769024;81;20346;-79
2022/12/27 01:50:05;;;;;;;;;;;;;;;1.88;91.12;97944.97;1769119;79;20140;-79
2022/12/27 01:52:41;;;;;;;;;;;;;;;1.92;90.84;97945.42;1771997;79;20094;-77
2022/12/27 01:55:11;;;;;;;;;;;;;;;1.93;91.07;97944.55;1771544;81;20094;-78
2022/12/27 01:57:38;;;;;;;;;;;;;;;1.94;90.85;97942.37;1770665;80;20085;-78
2022/12/27 02:00:06;;;;;;;;;;;;;;;1.94;91.25;97937.14;1770861;81;20337;-77
2022/12/27 02:02:34;;;;;;;;;;;;;;;1.96;91.09;97933.67;1742050;81;20120;-77
2022/12/27 02:05:00;;;;;;;;;;;;;;;2.01;91.03;97927.59;1770731;81;20100;-78
2022/12/27 02:07:30;;;;;;;;;;;;;;;2.04;91.26;97924.55;1770904;81;20362;-77
2022/12/27 02:09:58;;;;;;;;;;;;;;;2.07;91.17;97928.48;1770758;81;20106;-77
2022/12/27 02:12:26;;;;;;;;;;;;;;;2.11;91.36;97939.83;1770677;81;20425;-77
2022/12/27 02:14:52;;;;;;;;;;;;;;;2.09;91.27;97929.38;1770780;81;20354;-77
2022/12/27 02:17:22;;;;;;;;;;;;;;;2.10;91.21;97932.85;1770418;81;20113;-76
2022/12/27 02:20:01;;;;;;;;;;;;;;;2.12;91.92;97933.75;1776331;81;20117;-77
2022/12/27 02:26:11;;;;;;;;;;;;;;;2.12;91.35;97929.83;1778499;81;20136;-77
2022/12/27 02:28:52;;;;;;;;;;;;;;;2.17;91.45;97929.41;1776920;81;20117;-77
2022/12/27 02:31:25;;;;;;;;;;;;;;;2.23;91.37;97927.22;1750689;81;20134;-77
2022/12/27 02:33:52;;;;;;;;;;;;;;;2.27;91.55;97924.17;1746041;82;20091;-77
2022/12/27 02:36:25;;;;;;;;;;;;;;;2.30;91.21;97922.89;1746474;82;20427;-77
2022/12/27 02:38:56;;;;;;;;;;;;;;;2.32;91.24;97915.94;1762114;81;20088;-77
2022/12/27 02:55:26;;;;;;;;;;;;;;;2.64;91.24;97921.64;1777083;81;20129;-77
2022/12/27 02:58:23;;;;;;;;;;;;;;;2.64;91.01;97912.48;1718353;83;20149;-77
2022/12/27 03:03:54;;;;;;;;;;;;;;;2.72;91.48;97905.94;1764252;81;20083;-78
2022/12/27 03:06:40;;;;;;;;;;;;;;;2.74;91.64;97909.00;1764149;81;20366;-79
2022/12/27 03:18:35;;;;;;;;;;;;;;;2.71;91.30;97898.97;1759767;79;20139;-78
2022/12/27 03:26:37;;;;;;;;;;;;;;;2.72;91.29;97902.91;1746104;82;20079;-79
2022/12/27 03:34:42;;;;;;;;;;;;;;;2.59;91.20;97895.91;1768600;81;20082;-78
2022/12/27 03:40:08;;;;;;;;;;;;;;;2.62;91.45;97888.08;1777010;81;20088;-78
2022/12/27 03:46:32;;;;;;;;;;;;;;;2.63;91.36;97872.80;1746503;82;20108;-78
2022/12/27 03:47:57;;;;;;;;;;;;;;;2.62;91.42;97873.22;1754200;81;20338;-77
2022/12/27 03:50:32;;;;;;;;;;;;;;;2.61;91.68;97867.56;1776891;81;20089;-78
2022/12/27 03:53:05;;;;;;;;;;;;;;;2.58;91.34;97845.31;1777004;81;20101;-77
2022/12/27 03:55:32;;;;;;;;;;;;;;;2.55;91.41;97847.06;1776186;81;20357;-78
2022/12/27 03:57:58;;;;;;;;;;;;;;;2.53;91.45;97859.28;1776417;81;20086;-77
2022/12/27 04:00:24;;;;;;;;;;;;;;;2.47;91.50;97870.18;1776646;81;20140;-77
2022/12/27 04:02:52;;;;;;;;;;;;;;;2.45;91.87;97865.37;1750019;81;21735;-77
2022/12/27 04:05:18;;;;;;;;;;;;;;;2.46;91.97;97867.11;1776471;81;20097;-77
2022/12/27 04:35:13;;;;;;;;;;;;;;;2.65;92.35;97888.05;1740513;82;20349;-79
2022/12/27 04:37:40;;;;;;;;;;;;;;;2.67;92.82;97882.41;1740283;82;20143;-78
2022/12/27 04:56:38;;;;;;;;;;;;;;;2.93;92.13;97897.65;1770871;81;20081;-79
2022/12/27 05:02:04;;;;;;;;;;;;;;;3.05;92.50;97896.34;1770849;81;20322;-78
2022/12/27 05:04:31;;;;;;;;;;;;;;;3.16;92.50;97908.12;1770883;81;20360;-79
2022/12/27 05:13:58;;;;;;;;;;;;;;;3.22;92.34;97909.84;1770406;81;20314;-79
2022/12/27 05:14:55;;;;;;;;;;;;;;;3.34;92.62;97916.81;1770685;81;20098;-78
2022/12/27 05:17:21;;;;;;;;;;;;;;;3.39;92.56;97917.67;1770768;81;20094;-78
2022/12/27 05:19:47;;;;;;;;;;;;;;;3.49;93.14;97913.30;1759425;80;20336;-78
2022/12/27 05:27:44;;;;;;;;;;;;;;;3.55;93.00;97907.61;1726072;83;20125;-79
2022/12/27 05:30:11;;;;;;;;;;;;;;;3.53;92.92;97910.66;1726063;83;20090;-79
2022/12/27 05:32:38;;;;;;;;;;;;;;;3.51;92.71;97907.61;1726184;83;20097;-80
2022/12/27 05:35:05;;;;;;;;;;;;;;;3.46;93.01;97899.77;1742516;82;20430;-79
2022/12/27 05:37:31;;;;;;;;;;;;;;;3.46;92.74;97901.08;1755990;82;20087;-79
2022/12/27 05:39:57;;;;;;;;;;;;;;;3.46;92.84;97910.68;1751724;82;20131;-79
2022/12/27 05:42:24;;;;;;;;;;;;;;;3.41;93.10;97911.56;1725889;83;20085;-79
2022/12/27 05:44:51;;;;;;;;;;;;;;;3.41;94.07;97910.70;1726000;83;20349;-80
2022/12/27 05:47:17;;;;;;;;;;;;;;;3.41;93.37;97915.94;1735629;82;20118;-80
2022/12/27 05:49:43;;;;;;;;;;;;;;;3.39;93.17;97908.08;1755849;82;20363;-80
2022/12/27 05:52:09;;;;;;;;;;;;;;;3.40;93.67;97903.70;1755998;82;20119;-80
2022/12/27 05:54:36;;;;;;;;;;;;;;;3.39;93.61;97909.81;1755174;82;20348;-80
2022/12/27 05:57:02;;;;;;;;;;;;;;;3.40;94.26;97908.51;1756027;82;20099;-80
2022/12/27 05:59:28;;;;;;;;;;;;;;;3.38;94.00;97901.10;1756189;82;20328;-80
2022/12/27 06:01:55;;;;;;;;;;;;;;;3.37;94.21;97918.98;1756201;82;20122;-80
2022/12/27 06:04:21;;;;;;;;;;;;;;;3.35;94.34;97920.75;1755060;82;20324;-80
2022/12/27 06:06:47;;;;;;;;;;;;;;;3.36;93.80;97930.80;1756219;82;20091;-79
2022/12/27 06:09:13;;;;;;;;;;;;;;;3.38;93.81;97934.27;1755270;82;20359;-79
2022/12/27 06:11:39;;;;;;;;;;;;;;;3.39;93.68;97935.59;1737970;82;20140;-79
2022/12/27 06:14:06;;;;;;;;;;;;;;;3.38;94.07;97943.45;1726238;83;20105;-79
2022/12/27 06:16:34;;;;;;;;;;;;;;;3.38;93.86;97945.64;1726070;83;20089;-78
2022/12/27 06:19:02;;;;;;;;;;;;;;;3.39;93.82;97946.06;1731633;82;20104;-78
2022/12/27 06:21:28;;;;;;;;;;;;;;;3.39;93.96;97948.69;1746556;81;20075;-79
2022/12/27 06:23:54;;;;;;;;;;;;;;;3.41;93.82;97957.41;1746035;82;20157;-78
2022/12/27 06:26:24;;;;;;;;;;;;;;;3.42;93.71;97954.36;1746605;82;20131;-79
2022/12/27 06:28:50;;;;;;;;;;;;;;;3.41;94.12;97964.41;1746621;82;20130;-78
2022/12/27 06:31:18;;;;;;;;;;;;;;;3.41;94.08;97966.58;1756524;81;20173;-79
2022/12/27 06:33:45;;;;;;;;;;;;;;;3.41;93.79;97966.58;1770592;80;20189;-78
2022/12/27 06:36:13;;;;;;;;;;;;;;;3.42;93.69;97968.34;1757398;81;20089;-77
2022/12/27 06:38:40;;;;;;;;;;;;;;;3.43;94.01;97977.06;1777108;81;20148;-77
2022/12/27 06:41:09;;;;;;;;;;;;;;;3.46;94.40;97982.73;1772667;80;20085;-78
2022/12/27 06:43:35;;;;;;;;;;;;;;;3.46;94.71;97978.80;1773812;80;20446;-77
2022/12/27 06:46:05;;;;;;;;;;;;;;;3.46;94.11;97982.31;1754225;81;20079;-78
2022/12/27 06:48:31;;;;;;;;;;;;;;;3.49;94.66;97987.98;1777144;80;20093;-77
2022/12/27 06:50:57;;;;;;;;;;;;;;;3.51;94.91;97992.77;1772682;81;20093;-77
2022/12/27 06:53:24;;;;;;;;;;;;;;;3.52;94.71;98007.19;1776953;80;20130;-77
2022/12/27 06:55:50;;;;;;;;;;;;;;;3.53;95.00;98008.92;1776195;81;20167;-77
2022/12/27 06:58:16;;;;;;;;;;;;;;;3.56;94.91;98010.24;1768312;80;20184;-77
2022/12/27 07:00:43;;;;;;;;;;;;;;;3.60;94.73;98010.22;1760799;81;20327;-77
2022/12/27 07:03:09;;;;;;;;;;;;;;;3.65;94.78;98016.36;1761759;81;20116;-77
2022/12/27 07:05:38;;;;;;;;;;;;;;;3.70;94.77;98018.53;1764235;81;20187;-77
2022/12/27 07:08:05;;;;;;;;;;;;;;;3.72;96.00;98022.44;1762933;80;20488;-77
2022/12/27 07:10:31;;;;;;;;;;;;;;;3.74;95.66;98019.39;1762608;81;20085;-77
2022/12/27 07:12:59;;;;;;;;;;;;;;;3.74;95.31;98013.69;1763768;81;20133;-77
2022/12/27 07:15:25;;;;;;;;;;;;;;;3.74;95.46;98022.87;1763485;81;20105;-77
2022/12/27 07:17:52;;;;;;;;;;;;;;;3.76;94.91;98026.37;1763447;81;20112;-77
2022/12/27 07:20:18;;;;;;;;;;;;;;;3.79;95.49;98026.81;1757612;81;20085;-77
2022/12/27 07:22:44;;;;;;;;;;;;;;;3.81;95.12;98031.59;1738982;82;20114;-77
2022/12/27 07:25:14;;;;;;;;;;;;;;;3.83;94.95;98026.78;1738249;82;20119;-77
2022/12/27 07:27:45;;;;;;;;;;;;;;;3.87;94.91;98033.34;1730961;82;20096;-77
2022/12/27 07:30:11;;;;;;;;;;;;;;;3.90;94.88;98034.66;1756592;82;20107;-77
2022/12/27 07:32:38;;;;;;;;;;;;;;;3.91;94.94;98039.02;1756343;82;20083;-75
